createdAt,value
2022-08-17T00:01:24.400Z,20.09
2022-08-17T00:05:33.187Z,20.10
2022-08-17T00:09:34.625Z,20.03
2022-08-17T00:13:43.274Z,19.99
2022-08-17T00:17:50.762Z,20.03
2022-08-17T00:22:31.114Z,20.04
2022-08-17T00:26:35.854Z,20.05
2022-08-17T00:30:53.011Z,19.96
2022-08-17T00:34:55.102Z,20.01
2022-08-17T00:38:56.667Z,19.93
2022-08-17T00:43:09.599Z,19.85
2022-08-17T00:47:13.448Z,19.76
2022-08-17T00:51:36.235Z,19.63
2022-08-17T00:55:37.710Z,19.57
2022-08-17T00:59:44.230Z,19.50
2022-08-17T01:03:45.917Z,19.57
2022-08-17T01:07:50.804Z,19.59
2022-08-17T01:11:52.503Z,19.67
2022-08-17T01:16:05.188Z,19.52
2022-08-17T01:20:07.081Z,19.47
2022-08-17T01:24:08.789Z,19.35
2022-08-17T01:28:10.455Z,19.34
2022-08-17T01:32:32.178Z,19.29
2022-08-17T01:36:33.650Z,19.23
2022-08-17T01:40:39.062Z,19.26
2022-08-17T01:44:40.942Z,19.24
2022-08-17T01:48:43.611Z,19.11
2022-08-17T01:52:49.238Z,19.16
2022-08-17T01:56:52.098Z,19.19
2022-08-17T02:01:00.184Z,19.12
2022-08-17T02:05:02.897Z,19.01
2022-08-17T02:09:05.954Z,19.12
2022-08-17T02:13:07.445Z,19.14
2022-08-17T02:17:08.888Z,18.97
2022-08-17T02:21:10.727Z,19.05
2022-08-17T02:25:16.572Z,19.02
2022-08-17T02:29:18.371Z,18.92
2022-08-17T02:33:19.927Z,18.88
2022-08-17T02:37:21.917Z,18.84
2022-08-17T02:41:23.367Z,18.86
2022-08-17T02:45:25.998Z,18.90
2022-08-17T02:49:27.467Z,18.84
2022-08-17T02:53:33.671Z,18.74
2022-08-17T02:57:37.734Z,18.60
2022-08-17T03:01:39.285Z,18.58
2022-08-17T03:05:40.889Z,18.57
2022-08-17T03:09:42.689Z,18.53
2022-08-17T03:13:44.144Z,18.58
2022-08-17T03:17:46.089Z,18.62
2022-08-17T03:21:47.520Z,18.55
2022-08-17T03:25:58.050Z,18.48
2022-08-17T03:29:59.524Z,18.50
2022-08-17T03:34:01.111Z,18.39
2022-08-17T03:38:03.357Z,18.31
2022-08-17T03:42:32.095Z,18.31
2022-08-17T03:46:52.943Z,18.28
2022-08-17T03:51:14.924Z,18.36
2022-08-17T03:55:36.310Z,18.44
2022-08-17T03:59:38.725Z,18.56
2022-08-17T04:03:40.544Z,18.63
2022-08-17T04:07:42.003Z,18.63
2022-08-17T04:11:43.676Z,18.65
2022-08-17T04:15:47.091Z,18.68
2022-08-17T04:19:48.595Z,18.81
2022-08-17T04:23:50.562Z,18.85
2022-08-17T04:27:52.298Z,18.97
2022-08-17T04:31:53.888Z,19.00
2022-08-17T04:35:59.249Z,19.10
2022-08-17T04:40:19.415Z,19.16
2022-08-17T04:44:37.088Z,19.12
2022-08-17T04:48:42.878Z,19.28
2022-08-17T04:52:47.193Z,19.40
2022-08-17T04:56:48.732Z,19.59
2022-08-17T05:00:50.612Z,19.69
2022-08-17T05:04:52.302Z,19.86
2022-08-17T05:08:54.577Z,20.01
2022-08-17T05:13:00.863Z,20.10
2022-08-17T05:17:07.475Z,20.27
2022-08-17T05:21:13.619Z,20.41
2022-08-17T05:25:15.105Z,20.59
2022-08-17T05:29:16.554Z,20.84
2022-08-17T05:33:21.654Z,21.07
2022-08-17T05:37:23.095Z,21.19
2022-08-17T05:41:24.546Z,21.38
2022-08-17T05:45:55.678Z,21.57
2022-08-17T05:49:49.102Z,21.77
2022-08-17T05:54:00.510Z,21.86
2022-08-17T05:58:19.326Z,21.90
2022-08-17T06:03:03.493Z,22.11
2022-08-17T06:07:16.513Z,22.23
2022-08-17T06:11:55.435Z,22.40
2022-08-17T06:16:32.880Z,22.55
2022-08-17T06:20:44.973Z,22.58
2022-08-17T06:25:15.536Z,22.87
2022-08-17T06:29:29.302Z,22.94
2022-08-17T06:33:39.388Z,23.13
2022-08-17T06:37:57.602Z,23.22
2022-08-17T06:42:54.996Z,23.48
2022-08-17T06:47:07.148Z,23.74
2022-08-17T06:51:22.739Z,23.90
2022-08-17T06:55:37.832Z,24.08
2022-08-17T07:00:04.941Z,24.40
2022-08-17T07:04:18.915Z,24.49
2022-08-17T07:08:45.651Z,24.84
2022-08-17T07:12:48.489Z,24.86
2022-08-17T07:16:56.129Z,24.89
2022-08-17T07:21:05.611Z,25.00
2022-08-17T07:25:09.838Z,25.15
2022-08-17T07:29:19.622Z,25.36
2022-08-17T07:33:26.954Z,25.54
2022-08-17T07:37:28.450Z,25.76
2022-08-17T07:41:53.335Z,25.85
2022-08-17T07:46:39.751Z,26.12
2022-08-17T07:50:41.203Z,26.37
2022-08-17T07:54:48.979Z,26.48
2022-08-17T07:59:06.592Z,26.77
2022-08-17T08:03:28.541Z,26.97
2022-08-17T08:07:38.125Z,27.08
2022-08-17T08:11:44.125Z,26.95
2022-08-17T08:15:55.402Z,27.26
2022-08-17T08:19:59.868Z,27.33
2022-08-17T08:24:07.023Z,27.51
2022-08-17T08:28:25.333Z,27.79
2022-08-17T08:32:57.225Z,27.86
2022-08-17T08:37:36.689Z,28.11
2022-08-17T08:41:58.846Z,28.42
2022-08-17T08:46:16.037Z,28.44
2022-08-17T08:50:40.372Z,28.48
2022-08-17T08:54:55.918Z,28.69
2022-08-17T08:59:00.222Z,28.99
2022-08-17T09:03:52.810Z,29.10
2022-08-17T09:08:20.009Z,29.23
2022-08-17T09:12:29.167Z,29.56
2022-08-17T09:16:40.475Z,29.67
2022-08-17T09:20:56.251Z,29.79
2022-08-17T09:25:09.956Z,30.10
2022-08-17T09:29:14.567Z,30.16
2022-08-17T09:33:23.124Z,30.40
2022-08-17T09:37:32.547Z,30.18
2022-08-17T09:41:52.867Z,30.63
2022-08-17T09:46:03.894Z,30.69
2022-08-17T09:51:05.223Z,31.00
2022-08-17T09:54:44.983Z,31.10
2022-08-17T09:59:05.067Z,31.11
2022-08-17T10:03:16.195Z,31.54
2022-08-17T10:07:43.904Z,31.96
2022-08-17T10:12:12.505Z,31.63
2022-08-17T10:16:32.640Z,31.32
2022-08-17T10:21:19.637Z,31.86
2022-08-17T10:25:54.246Z,32.01
2022-08-17T10:30:01.285Z,31.86
2022-08-17T10:34:24.235Z,32.25
2022-08-17T10:39:08.534Z,32.24
2022-08-17T10:43:32.833Z,32.60
2022-08-17T10:48:06.292Z,31.89
2022-08-17T10:52:20.614Z,31.41
2022-08-17T10:56:24.408Z,31.44
2022-08-17T11:00:27.851Z,32.46
2022-08-17T11:04:44.843Z,32.62
2022-08-17T11:09:02.646Z,31.81
2022-08-17T11:13:41.179Z,32.24
2022-08-17T11:17:52.009Z,31.95
2022-08-17T11:22:31.308Z,31.95
2022-08-17T11:26:38.358Z,32.46
2022-08-17T11:30:50.219Z,32.39
2022-08-17T11:35:25.296Z,31.16
2022-08-17T11:40:06.468Z,32.60
2022-08-17T11:44:19.931Z,33.71
2022-08-17T11:49:17.934Z,32.49
2022-08-17T11:53:39.591Z,32.53
2022-08-17T11:57:41.013Z,31.65
2022-08-17T12:01:57.089Z,32.04
2022-08-17T12:06:19.847Z,32.24
2022-08-17T12:10:32.316Z,32.74
2022-08-17T12:15:08.547Z,32.21
2022-08-17T12:18:59.818Z,32.38
2022-08-17T12:23:32.018Z,32.72
2022-08-17T12:27:47.705Z,32.44
2022-08-17T12:31:58.994Z,33.25
2022-08-17T12:36:07.461Z,32.94
2022-08-17T12:40:27.071Z,32.51
2022-08-17T12:44:35.984Z,31.40
2022-08-17T12:48:59.554Z,31.71
2022-08-17T12:53:02.804Z,32.04
2022-08-17T12:57:17.283Z,32.20
2022-08-17T13:01:19.621Z,32.56
2022-08-17T13:05:37.375Z,32.99
2022-08-17T13:09:40.767Z,33.18
2022-08-17T13:13:45.682Z,33.68
2022-08-17T13:17:56.714Z,34.31
2022-08-17T13:22:01.376Z,33.48
2022-08-17T13:26:07.644Z,32.92
2022-08-17T13:30:12.121Z,32.59
2022-08-17T13:34:17.618Z,33.37
2022-08-17T13:38:47.194Z,32.40
2022-08-17T13:42:53.979Z,32.10
2022-08-17T13:46:57.406Z,33.44
2022-08-17T13:50:59.503Z,33.44
2022-08-17T13:55:07.710Z,33.46
2022-08-17T13:59:16.554Z,32.55
2022-08-17T14:03:35.801Z,32.12
2022-08-17T14:07:40.318Z,32.66
2022-08-17T14:11:43.115Z,32.71
2022-08-17T14:15:55.063Z,32.71
2022-08-17T14:19:58.997Z,32.49
2022-08-17T14:24:00.487Z,31.77
2022-08-17T14:28:05.594Z,31.92
2022-08-17T14:32:21.016Z,32.47
2022-08-17T14:36:22.605Z,32.71
2022-08-17T14:40:25.412Z,33.49
2022-08-17T14:44:26.874Z,33.21
2022-08-17T14:48:29.413Z,33.64
2022-08-17T14:52:31.533Z,33.97
2022-08-17T14:56:37.820Z,33.80
2022-08-17T15:00:40.838Z,35.12
2022-08-17T15:04:45.656Z,34.06
2022-08-17T15:08:47.294Z,34.55
2022-08-17T15:12:49.070Z,34.11
2022-08-17T15:16:50.526Z,35.29
2022-08-17T15:20:52.573Z,34.85
2022-08-17T15:24:55.698Z,34.46
2022-08-17T15:28:57.314Z,34.36
2022-08-17T15:32:59.619Z,34.94
2022-08-17T15:37:02.496Z,34.29
2022-08-17T15:41:03.976Z,34.73
2022-08-17T15:45:09.543Z,34.19
2022-08-17T15:49:11.192Z,34.28
2022-08-17T15:53:12.654Z,34.37
2022-08-17T15:57:15.831Z,33.96
2022-08-17T16:02:21.594Z,31.93
2022-08-17T16:05:42.110Z,31.66
2022-08-17T16:09:44.995Z,32.65
2022-08-17T16:13:54.765Z,32.95
2022-08-17T16:17:56.937Z,32.86
2022-08-17T16:21:58.474Z,33.83
2022-08-17T16:25:59.946Z,34.22
2022-08-17T16:30:02.039Z,33.40
2022-08-17T16:34:16.306Z,33.33
2022-08-17T16:38:20.467Z,33.70
2022-08-17T16:42:28.381Z,33.77
2022-08-17T16:46:29.982Z,33.15
2022-08-17T16:50:32.227Z,34.64
2022-08-17T16:54:35.184Z,34.70
2022-08-17T16:58:37.601Z,34.68
2022-08-17T17:02:47.090Z,35.63
2022-08-17T17:07:02.555Z,35.06
2022-08-17T17:11:12.603Z,34.76
2022-08-17T17:15:17.655Z,32.25
2022-08-17T17:19:35.204Z,34.10
2022-08-17T17:23:51.301Z,34.36
2022-08-17T17:28:01.888Z,34.57
2022-08-17T17:32:38.775Z,32.87
2022-08-17T17:36:47.075Z,33.45
2022-08-17T17:40:54.908Z,32.27
2022-08-17T17:45:09.423Z,31.22
2022-08-17T17:49:14.091Z,30.33
2022-08-17T17:53:35.176Z,29.65
2022-08-17T17:58:13.385Z,29.52
2022-08-17T18:02:52.056Z,29.07
2022-08-17T18:07:05.812Z,29.28
2022-08-17T18:11:35.049Z,29.27
2022-08-17T18:15:51.453Z,28.90
2022-08-17T18:19:55.601Z,28.64
2022-08-17T18:24:03.004Z,28.32
2022-08-17T18:28:04.863Z,28.18
2022-08-17T18:32:29.856Z,28.19
2022-08-17T18:36:39.891Z,28.24
2022-08-17T18:40:41.391Z,28.01
2022-08-17T18:44:44.661Z,28.00
2022-08-17T18:48:52.678Z,27.86
2022-08-17T18:53:14.640Z,27.86
2022-08-17T18:57:37.855Z,27.78
2022-08-17T19:01:53.270Z,27.11
2022-08-17T19:06:17.111Z,27.19
2022-08-17T19:10:46.101Z,27.06
2022-08-17T19:14:49.931Z,27.27
2022-08-17T19:19:09.984Z,27.33
2022-08-17T19:23:40.309Z,27.43
2022-08-17T19:28:22.272Z,27.13
2022-08-17T19:32:31.652Z,27.13
2022-08-17T19:36:53.233Z,27.04
2022-08-17T19:41:07.106Z,27.00
2022-08-17T19:45:15.797Z,26.68
2022-08-17T19:49:49.716Z,26.37
2022-08-17T19:54:31.006Z,26.64
2022-08-17T19:58:45.712Z,26.74
2022-08-17T20:02:51.571Z,26.45
2022-08-17T20:06:53.663Z,26.35
2022-08-17T20:11:15.040Z,26.36
2022-08-17T20:15:28.489Z,25.75
2022-08-17T20:19:53.428Z,25.74
2022-08-17T20:24:20.178Z,25.38
2022-08-17T20:28:27.943Z,25.25
2022-08-17T20:32:35.263Z,25.29
2022-08-17T20:36:57.913Z,24.98
2022-08-17T20:41:02.519Z,25.09
2022-08-17T20:45:24.708Z,24.86
2022-08-17T20:50:07.037Z,24.75
2022-08-17T20:54:17.867Z,24.89
2022-08-17T20:58:25.184Z,24.89
2022-08-17T21:02:32.821Z,24.75
2022-08-17T21:06:34.358Z,24.75
2022-08-17T21:10:37.323Z,24.89
2022-08-17T21:14:57.346Z,24.89
2022-08-17T21:19:10.900Z,25.29
2022-08-17T21:23:42.179Z,25.44
2022-08-17T21:27:53.118Z,25.35
2022-08-17T21:32:03.666Z,25.12
2022-08-17T21:36:12.638Z,25.11
2022-08-17T21:40:14.848Z,25.20
2022-08-17T21:44:31.335Z,24.82
2022-08-17T21:48:43.099Z,24.87
2022-08-17T21:52:44.942Z,25.09
2022-08-17T21:56:48.294Z,25.08
2022-08-17T22:01:21.094Z,24.53
2022-08-17T22:05:37.072Z,24.43
2022-08-17T22:09:48.398Z,24.30
2022-08-17T22:13:49.860Z,24.45
2022-08-17T22:18:03.964Z,24.17
2022-08-17T22:22:09.012Z,24.03
2022-08-17T22:26:13.648Z,24.05
2022-08-17T22:30:30.110Z,24.04
2022-08-17T22:34:31.629Z,24.04
2022-08-17T22:38:33.273Z,24.17
2022-08-17T22:42:47.251Z,23.86
2022-08-17T22:47:11.259Z,23.83
2022-08-17T22:51:17.479Z,23.75
2022-08-17T22:55:37.720Z,23.67
2022-08-17T22:59:50.473Z,23.79
2022-08-17T23:04:01.252Z,23.74
2022-08-17T23:08:03.504Z,24.08
2022-08-17T23:12:13.602Z,23.70
2022-08-17T23:16:15.111Z,24.04
2022-08-17T23:20:17.587Z,24.21
2022-08-17T23:24:28.196Z,24.32
2022-08-17T23:28:29.658Z,24.26
2022-08-17T23:32:31.554Z,24.30
2022-08-17T23:36:32.964Z,23.98
2022-08-17T23:40:34.558Z,24.06
2022-08-17T23:44:37.507Z,24.18
2022-08-17T23:48:41.019Z,24.16
2022-08-17T23:52:43.614Z,24.05
2022-08-17T23:56:47.733Z,24.11
